East Flat Rock, North Carolina
Current Conditions -  °F | °C
As of 1:54 PM on Sunday 23 Nov 2014 (Local Time) from KAVL Reporting Station
Heavy Rain Heavy Rain  
Wind Chill: 42°   Ceiling: 400
Heat Index: 47°   Visibility: 2.5mi
Dew Point: 45°   Wind: 12mph
Humidity: 93%   Direction: 190°S
Pressure: 29.98"   Gusts: NA
Location:  35.28°N, 82.42°W
Report Text: KAVL 231854Z 19010KT 2 1/2SM +RA BR BKN004 OVC014 08/07 A2998 RMK AO2 SLP149 P0020 T00830072
Loading
Personal Weather Stations






























Interactive Weather Map New forecast layout! Learn more

10-Day Weather Forecast

Advertisements
Track Severe Weather on mobile